Time;durP1;ratioP1;P1;durP2;ratioP2;P2;SDS_P1;SDS_P2;PMS_P1;PMS_P2;Temp;Humidity;BMP_temperature;BMP_pressure;BME280_temperature;BME280_humidity;BME280_pressure;Samples;Min_cycle;Max_cycle;Signal;HPM_P1;HPM_P2
2023/10/06 00:00:48;;;;;;;42.47;23.13;;;12.50;99.90;;;;;;5204086;28;20200;-50
2023/10/06 00:03:20;;;;;;;36.53;19.00;;;12.50;99.90;;;;;;5196810;28;20227;-51
2023/10/06 00:05:53;;;;;;;36.13;21.03;;;12.50;99.90;;;;;;5207464;28;20500;-50
2023/10/06 00:08:32;;;;;;;27.47;17.20;;;12.40;99.90;;;;;;5209569;28;20437;-52
2023/10/06 00:11:11;;;;;;;30.33;18.50;;;12.40;99.90;;;;;;5203307;28;20453;-52
2023/10/06 00:13:52;;;;;;;27.43;16.90;;;12.40;99.90;;;;;;5204833;28;20594;-51
2023/10/06 00:16:23;;;;;;;32.23;18.23;;;12.40;99.90;;;;;;5208132;28;20556;-50
2023/10/06 00:18:57;;;;;;;20.10;14.90;;;12.40;99.90;;;;;;5204500;28;20525;-50
2023/10/06 00:21:29;;;;;;;31.07;16.10;;;12.40;99.90;;;;;;5198976;28;20283;-51
2023/10/06 00:23:59;;;;;;;25.50;16.03;;;12.30;99.90;;;;;;5209853;28;20989;-50
2023/10/06 00:26:30;;;;;;;21.13;14.77;;;12.30;99.90;;;;;;5202193;28;20527;-51
2023/10/06 00:29:01;;;;;;;23.93;15.10;;;12.20;99.90;;;;;;5208064;28;20242;-52
2023/10/06 00:31:32;;;;;;;18.40;13.70;;;12.20;99.90;;;;;;5201565;28;20208;-51
2023/10/06 00:34:04;;;;;;;22.60;16.17;;;12.20;99.90;;;;;;5209973;28;20711;-52
2023/10/06 00:36:35;;;;;;;28.27;16.03;;;12.30;99.90;;;;;;5206048;28;20464;-51
2023/10/06 00:39:12;;;;;;;25.63;15.20;;;12.30;99.90;;;;;;5207492;28;20523;-51
2023/10/06 00:41:44;;;;;;;26.53;16.13;;;12.40;99.90;;;;;;5205839;28;20230;-50
2023/10/06 00:44:14;;;;;;;27.73;15.23;;;12.40;99.90;;;;;;5206667;28;20470;-51
2023/10/06 00:46:45;;;;;;;17.97;13.13;;;12.40;99.90;;;;;;5205324;28;20466;-52
2023/10/06 00:49:18;;;;;;;20.73;13.50;;;12.40;99.90;;;;;;5205881;28;20701;-51
2023/10/06 00:51:48;;;;;;;20.00;13.63;;;12.50;99.90;;;;;;5189850;28;20726;-52
2023/10/06 00:54:19;;;;;;;19.70;13.80;;;12.50;99.90;;;;;;5208369;28;20451;-51
2023/10/06 00:56:52;;;;;;;25.07;14.30;;;12.50;99.90;;;;;;5221551;28;20203;-51
2023/10/06 00:59:24;;;;;;;18.63;13.23;;;12.50;99.90;;;;;;5204299;28;20469;-51
2023/10/06 01:01:55;;;;;;;18.20;13.03;;;12.40;99.90;;;;;;5202410;28;21024;-50
2023/10/06 01:04:26;;;;;;;27.57;15.50;;;12.40;99.90;;;;;;5206621;28;20818;-51
2023/10/06 01:06:57;;;;;;;24.23;15.33;;;12.40;99.90;;;;;;5206693;28;20430;-52
2023/10/06 01:09:31;;;;;;;22.10;13.00;;;12.40;99.90;;;;;;5202747;28;20871;-51
2023/10/06 01:12:06;;;;;;;18.93;14.17;;;12.50;99.90;;;;;;5207478;28;20200;-52
2023/10/06 01:14:37;;;;;;;18.40;12.07;;;12.50;99.90;;;;;;5209885;28;20448;-51
2023/10/06 01:19:48;;;;;;;26.23;14.50;;;12.60;99.90;;;;;;5201565;28;20269;-50
2023/10/06 01:22:25;;;;;;;26.47;15.27;;;12.60;99.90;;;;;;5212536;28;20816;-50
2023/10/06 01:24:58;;;;;;;30.33;17.00;;;12.70;99.90;;;;;;5205410;28;20453;-51
2023/10/06 01:27:29;;;;;;;20.97;14.90;;;12.70;99.90;;;;;;5202689;28;20488;-51
2023/10/06 01:30:18;;;;;;;20.97;14.00;;;12.80;99.90;;;;;;5187639;28;20435;-50
2023/10/06 01:32:50;;;;;;;29.10;16.97;;;12.80;99.90;;;;;;5204936;28;20660;-49
2023/10/06 01:35:23;;;;;;;24.90;13.93;;;12.90;99.90;;;;;;5187632;28;20442;-51
2023/10/06 01:37:58;;;;;;;18.80;13.30;;;12.90;99.90;;;;;;5202692;28;20990;-51
2023/10/06 01:42:59;;;;;;;21.30;13.93;;;13.00;99.90;;;;;;5207202;28;20431;-49
2023/10/06 01:45:30;;;;;;;28.20;16.40;;;13.00;99.90;;;;;;5204929;28;20183;-49
2023/10/06 01:48:22;;;;;;;28.53;16.50;;;13.00;99.90;;;;;;5204672;28;20190;-50
2023/10/06 01:50:54;;;;;;;24.70;16.50;;;13.00;99.90;;;;;;5201620;28;20207;-51
2023/10/06 01:53:32;;;;;;;31.00;16.77;;;13.00;99.90;;;;;;5206567;28;20517;-50
2023/10/06 01:56:06;;;;;;;49.70;23.37;;;13.10;99.90;;;;;;5205891;28;20472;-50
2023/10/06 01:58:37;;;;;;;38.47;19.60;;;13.10;99.90;;;;;;5203048;28;20446;-50
2023/10/06 02:01:08;;;;;;;54.07;23.47;;;13.10;99.90;;;;;;5204024;28;20533;-51
2023/10/06 02:03:40;;;;;;;37.10;19.30;;;13.00;99.90;;;;;;5203601;28;20223;-51
2023/10/06 02:06:13;;;;;;;44.83;21.23;;;13.10;99.90;;;;;;5204135;28;20891;-50
2023/10/06 02:08:49;;;;;;;21.07;14.33;;;13.10;99.90;;;;;;5208479;28;20970;-50
2023/10/06 02:11:28;;;;;;;30.00;17.07;;;13.10;99.90;;;;;;5203306;28;20470;-51
2023/10/06 02:13:59;;;;;;;38.23;19.20;;;13.20;99.90;;;;;;5204018;28;20448;-51
2023/10/06 02:16:30;;;;;;;26.13;17.07;;;13.20;99.90;;;;;;5205328;28;20470;-51
2023/10/06 02:19:02;;;;;;;24.30;15.63;;;13.20;99.90;;;;;;5203751;28;20195;-51
2023/10/06 02:21:33;;;;;;;25.03;16.60;;;13.20;99.90;;;;;;5219210;28;20731;-51
2023/10/06 02:24:08;;;;;;;30.53;18.20;;;13.20;99.90;;;;;;5198513;28;20529;-50
2023/10/06 02:26:39;;;;;;;24.23;16.27;;;13.30;99.90;;;;;;5204267;28;20211;-50
2023/10/06 02:29:43;;;;;;;25.23;15.27;;;13.30;99.90;;;;;;5188909;28;20441;-50
2023/10/06 02:32:06;;;;;;;41.37;20.17;;;13.30;99.90;;;;;;5200205;28;20454;-49
2023/10/06 02:34:38;;;;;;;30.60;18.00;;;13.30;99.90;;;;;;5201606;28;20806;-52
2023/10/06 02:37:08;;;;;;;25.33;15.90;;;13.30;99.90;;;;;;5203033;28;20620;-49
2023/10/06 02:39:43;;;;;;;25.27;15.63;;;13.20;99.90;;;;;;5200423;28;20470;-49
2023/10/06 02:42:14;;;;;;;21.10;15.20;;;13.30;99.90;;;;;;5201598;28;20651;-49
2023/10/06 02:44:45;;;;;;;26.40;14.83;;;13.30;99.90;;;;;;5200934;28;20457;-51
2023/10/06 02:47:16;;;;;;;25.50;14.00;;;13.30;99.90;;;;;;5202500;28;20946;-50
2023/10/06 02:49:55;;;;;;;22.90;15.40;;;13.30;99.90;;;;;;5204136;28;20188;-51
2023/10/06 02:52:37;;;;;;;37.57;18.23;;;13.30;99.90;;;;;;5196100;28;20204;-50
2023/10/06 02:55:10;;;;;;;39.97;18.23;;;13.30;99.90;;;;;;5203254;28;20532;-50
2023/10/06 02:57:50;;;;;;;23.43;15.40;;;13.30;99.90;;;;;;5198571;28;20491;-51
2023/10/06 03:02:55;;;;;;;21.00;14.07;;;13.30;99.90;;;;;;5202882;28;20553;-50
2023/10/06 03:05:38;;;;;;;21.07;13.27;;;13.30;99.90;;;;;;5204645;28;20203;-50
2023/10/06 03:08:09;;;;;;;29.47;17.60;;;13.30;99.90;;;;;;5205303;28;20447;-50
2023/10/06 03:10:43;;;;;;;27.33;17.20;;;13.40;99.90;;;;;;5202940;28;20461;-49
2023/10/06 03:13:32;;;;;;;23.60;15.80;;;13.30;99.90;;;;;;5211487;28;20257;-50
2023/10/06 03:16:10;;;;;;;24.40;17.20;;;13.30;99.90;;;;;;5199391;28;20458;-51
2023/10/06 03:18:44;;;;;;;22.90;15.10;;;13.40;99.90;;;;;;5200120;28;20521;-50
2023/10/06 03:21:15;;;;;;;28.03;17.50;;;13.40;99.90;;;;;;5211533;28;20473;-50
2023/10/06 03:23:57;;;;;;;30.90;18.23;;;13.40;99.90;;;;;;5201758;28;20436;-51
2023/10/06 03:29:11;;;;;;;22.60;15.97;;;13.40;99.90;;;;;;5207098;28;20434;-50
2023/10/06 03:31:44;;;;;;;22.40;15.80;;;13.40;99.90;;;;;;5203893;28;20337;-50
2023/10/06 03:34:19;;;;;;;27.03;16.17;;;13.40;99.90;;;;;;5204548;28;20898;-49
2023/10/06 03:36:53;;;;;;;31.53;18.50;;;13.40;99.90;;;;;;5207766;28;20461;-49
2023/10/06 03:39:31;;;;;;;31.87;18.73;;;13.50;99.90;;;;;;5206975;28;20461;-52
2023/10/06 03:42:06;;;;;;;31.27;19.50;;;13.50;99.90;;;;;;5204239;28;20464;-50
2023/10/06 03:44:37;;;;;;;29.17;18.70;;;13.40;99.90;;;;;;5206669;28;20911;-51
2023/10/06 03:47:08;;;;;;;38.17;22.10;;;13.40;99.90;;;;;;5207177;28;20458;-51
2023/10/06 03:49:42;;;;;;;27.23;19.00;;;13.50;99.90;;;;;;5206403;28;20194;-51
2023/10/06 03:52:13;;;;;;;25.90;18.80;;;13.40;99.90;;;;;;5206360;28;20466;-51
2023/10/06 03:54:48;;;;;;;57.30;26.30;;;13.50;99.90;;;;;;5207869;28;20464;-51
2023/10/06 03:57:19;;;;;;;43.97;23.23;;;13.40;99.90;;;;;;5223756;28;20218;-52
2023/10/06 03:59:50;;;;;;;28.43;18.80;;;13.50;99.90;;;;;;5205563;28;20446;-51
2023/10/06 04:02:21;;;;;;;36.23;21.63;;;13.50;99.90;;;;;;5201076;28;20469;-52
2023/10/06 04:04:53;;;;;;;32.17;18.37;;;13.60;99.90;;;;;;5209630;28;20265;-50
2023/10/06 04:07:24;;;;;;;27.83;17.67;;;13.50;99.90;;;;;;5206999;28;20500;-51
2023/10/06 04:09:55;;;;;;;27.60;16.70;;;13.50;99.90;;;;;;5207838;28;20438;-52
2023/10/06 04:12:25;;;;;;;28.43;17.80;;;13.50;99.90;;;;;;5205145;28;20246;-51
2023/10/06 04:14:56;;;;;;;28.47;19.20;;;13.50;99.90;;;;;;5203255;28;20970;-51
2023/10/06 04:17:29;;;;;;;37.30;21.00;;;13.50;99.90;;;;;;5206403;28;20234;-51
2023/10/06 04:20:05;;;;;;;27.33;18.83;;;13.50;99.90;;;;;;5206940;28;20184;-51
2023/10/06 04:22:38;;;;;;;30.03;18.27;;;13.40;99.90;;;;;;5206923;28;20456;-51
2023/10/06 04:25:10;;;;;;;24.77;18.50;;;13.40;99.90;;;;;;5209047;28;20427;-51
2023/10/06 04:27:41;;;;;;;28.37;19.60;;;13.30;99.90;;;;;;5203856;28;20808;-50
2023/10/06 04:30:12;;;;;;;33.27;19.20;;;13.40;99.90;;;;;;5201637;28;20449;-51
2023/10/06 04:32:43;;;;;;;33.40;19.53;;;13.40;99.90;;;;;;5201987;28;20446;-52
2023/10/06 04:35:20;;;;;;;27.70;18.97;;;13.30;99.90;;;;;;5223408;28;20496;-50
2023/10/06 04:37:51;;;;;;;25.77;19.77;;;13.30;99.90;;;;;;5206708;28;20675;-52
2023/10/06 04:40:23;;;;;;;27.07;16.83;;;13.40;99.90;;;;;;5203170;28;20445;-49
2023/10/06 04:42:56;;;;;;;29.10;20.23;;;13.30;99.90;;;;;;5204743;28;20438;-50
2023/10/06 04:45:33;;;;;;;30.50;21.57;;;13.30;99.90;;;;;;5201690;28;20450;-51
2023/10/06 04:48:07;;;;;;;29.30;19.97;;;13.20;99.90;;;;;;5196085;28;21000;-51
2023/10/06 04:50:38;;;;;;;27.37;18.63;;;13.20;99.90;;;;;;5202563;28;20457;-50
2023/10/06 04:53:11;;;;;;;28.13;20.50;;;13.10;99.90;;;;;;5205130;28;20874;-50
2023/10/06 04:55:41;;;;;;;37.90;23.37;;;13.30;99.90;;;;;;5205900;28;20183;-51
2023/10/06 04:58:15;;;;;;;37.20;23.37;;;13.50;99.90;;;;;;5205543;28;20989;-50
2023/10/06 05:00:59;;;;;;;36.43;19.70;;;13.50;99.90;;;;;;5204476;28;20281;-49
2023/10/06 05:03:42;;;;;;;35.40;23.13;;;13.40;99.90;;;;;;5203655;28;20788;-53
2023/10/06 05:06:17;;;;;;;41.10;22.90;;;13.40;99.90;;;;;;5219350;28;20438;-50
2023/10/06 05:08:48;;;;;;;30.50;20.77;;;13.30;99.90;;;;;;5205331;28;20806;-50
2023/10/06 05:11:23;;;;;;;41.60;21.50;;;13.30;99.90;;;;;;5205095;28;20805;-51
2023/10/06 05:13:54;;;;;;;31.37;21.33;;;13.30;99.90;;;;;;5207571;28;20453;-50
2023/10/06 05:16:27;;;;;;;39.77;25.03;;;13.40;99.90;;;;;;5209486;28;20523;-50
2023/10/06 05:18:58;;;;;;;35.13;22.33;;;13.40;99.90;;;;;;5208282;28;20186;-49
2023/10/06 05:21:28;;;;;;;41.03;24.67;;;13.30;99.90;;;;;;5204738;28;20545;-50
2023/10/06 05:23:59;;;;;;;35.93;25.10;;;13.30;99.90;;;;;;5206667;28;20183;-51
2023/10/06 05:26:30;;;;;;;31.97;22.73;;;13.30;99.90;;;;;;5200030;28;20184;-51
2023/10/06 05:29:01;;;;;;;34.57;21.90;;;13.20;99.90;;;;;;5206730;28;20180;-51
2023/10/06 05:31:33;;;;;;;33.87;23.80;;;13.20;99.90;;;;;;5204135;28;20211;-51
2023/10/06 05:34:07;;;;;;;54.57;26.80;;;13.30;99.90;;;;;;5204087;28;20211;-52
2023/10/06 05:36:38;;;;;;;31.33;21.23;;;13.30;99.90;;;;;;5204584;28;20648;-50
2023/10/06 05:39:11;;;;;;;39.17;22.93;;;13.30;99.90;;;;;;5207751;28;20461;-50
2023/10/06 05:41:44;;;;;;;34.07;23.50;;;13.40;99.90;;;;;;5188868;28;20203;-51
2023/10/06 05:44:14;;;;;;;37.20;23.33;;;13.40;99.90;;;;;;5205447;28;20445;-51
2023/10/06 05:46:45;;;;;;;34.27;21.53;;;13.50;99.90;;;;;;5203866;28;20435;-50
2023/10/06 05:49:21;;;;;;;32.40;21.03;;;13.50;99.90;;;;;;5209523;28;20180;-50
2023/10/06 05:51:51;;;;;;;31.23;21.00;;;13.40;99.90;;;;;;5197845;28;20622;-50
2023/10/06 05:54:22;;;;;;;34.10;22.90;;;13.50;99.90;;;;;;5199851;28;20431;-49
2023/10/06 05:56:53;;;;;;;31.90;21.13;;;13.60;99.90;;;;;;5199767;28;20203;-50
2023/10/06 05:59:25;;;;;;;29.37;20.73;;;13.50;99.90;;;;;;5208944;28;20168;-50
2023/10/06 06:01:56;;;;;;;31.63;21.13;;;13.50;99.90;;;;;;5203727;28;20243;-50
2023/10/06 06:04:30;;;;;;;32.50;21.30;;;13.60;99.90;;;;;;5205998;28;20862;-51
2023/10/06 06:07:08;;;;;;;27.37;20.57;;;13.60;99.90;;;;;;5205093;28;20278;-51
2023/10/06 06:09:38;;;;;;;28.97;19.23;;;13.60;99.90;;;;;;5216816;28;20446;-50
2023/10/06 06:12:10;;;;;;;26.17;18.10;;;13.80;99.90;;;;;;5205997;28;20507;-49
2023/10/06 06:14:44;;;;;;;31.40;18.87;;;14.00;99.90;;;;;;5208904;28;20190;-49
2023/10/06 06:17:16;;;;;;;24.37;17.40;;;14.10;99.90;;;;;;5191346;28;20488;-51
2023/10/06 06:19:47;;;;;;;28.00;17.30;;;14.20;99.90;;;;;;5205382;28;20422;-51
2023/10/06 06:22:19;;;;;;;26.67;16.60;;;14.40;99.90;;;;;;5204436;28;20434;-50
2023/10/06 06:24:49;;;;;;;26.03;16.03;;;14.70;99.90;;;;;;5187951;28;20442;-49
2023/10/06 06:27:22;;;;;;;26.97;17.77;;;15.30;99.90;;;;;;5203468;28;20434;-51
2023/10/06 06:29:53;;;;;;;21.83;13.87;;;16.30;99.90;;;;;;5205141;28;20191;-52
2023/10/06 06:32:25;;;;;;;20.30;11.33;;;17.70;99.90;;;;;;5205321;28;20519;-51
2023/10/06 06:34:56;;;;;;;15.27;9.87;;;18.90;99.90;;;;;;5205059;28;20642;-50
2023/10/06 06:37:27;;;;;;;15.67;11.13;;;20.20;99.90;;;;;;5198714;28;20462;-50
2023/10/06 06:39:58;;;;;;;13.60;8.70;;;20.80;99.90;;;;;;5199142;28;20226;-52
2023/10/06 06:42:29;;;;;;;15.17;10.03;;;20.60;99.90;;;;;;5195936;28;20454;-51
2023/10/06 06:45:01;;;;;;;27.70;10.47;;;19.90;99.90;;;;;;5197829;28;20246;-50
2023/10/06 06:47:32;;;;;;;11.30;8.43;;;19.00;99.90;;;;;;5201768;28;20191;-51
2023/10/06 06:50:02;;;;;;;13.10;8.60;;;18.20;99.90;;;;;;5198196;28;20437;-50
2023/10/06 06:52:34;;;;;;;22.43;9.10;;;17.60;99.90;;;;;;5198052;28;20463;-50
2023/10/06 06:55:12;;;;;;;16.43;10.00;;;17.20;99.90;;;;;;5194398;28;20222;-50
2023/10/06 06:57:44;;;;;;;13.00;9.30;;;16.80;99.90;;;;;;5199955;28;20457;-50
2023/10/06 07:00:17;;;;;;;9.60;8.60;;;16.60;99.90;;;;;;5201507;28;20438;-50
2023/10/06 07:02:52;;;;;;;10.07;8.63;;;16.40;99.90;;;;;;5198832;28;20442;-49
2023/10/06 07:05:23;;;;;;;15.10;9.77;;;16.60;99.90;;;;;;5201323;28;20426;-49
2023/10/06 07:07:54;;;;;;;15.53;9.37;;;16.80;99.90;;;;;;5199422;28;20438;-49
2023/10/06 07:10:25;;;;;;;14.50;9.00;;;17.00;99.90;;;;;;5202171;28;20187;-49
2023/10/06 07:13:00;;;;;;;12.23;8.77;;;17.10;99.90;;;;;;5206353;28;20186;-49
2023/10/06 07:15:32;;;;;;;14.97;10.30;;;17.10;99.90;;;;;;5205108;28;20862;-49
2023/10/06 07:18:03;;;;;;;10.13;9.03;;;16.90;99.90;;;;;;5202738;28;20975;-50
2023/10/06 07:20:34;;;;;;;14.80;9.43;;;16.90;99.90;;;;;;5202237;28;20438;-50
2023/10/06 07:23:05;;;;;;;16.80;9.70;;;16.90;99.90;;;;;;5202318;28;20473;-48
2023/10/06 07:25:37;;;;;;;16.77;9.37;;;16.90;99.90;;;;;;5208165;28;20422;-49
2023/10/06 07:28:10;;;;;;;16.50;9.20;;;17.00;99.90;;;;;;5220142;28;20530;-49
2023/10/06 07:30:41;;;;;;;12.47;9.00;;;17.20;99.90;;;;;;5187960;28;21488;-50
2023/10/06 07:33:12;;;;;;;13.77;8.20;;;17.30;99.90;;;;;;5218276;28;20431;-49
2023/10/06 07:35:47;;;;;;;9.30;7.90;;;17.40;99.90;;;;;;5206529;28;20183;-49
2023/10/06 07:38:18;;;;;;;9.43;7.80;;;17.50;99.90;;;;;;5207700;28;20175;-49
2023/10/06 07:40:48;;;;;;;10.73;7.93;;;17.80;99.90;;;;;;5210703;28;20992;-51
2023/10/06 07:43:23;;;;;;;12.87;8.20;;;17.80;99.90;;;;;;5210983;28;20182;-50
2023/10/06 07:45:54;;;;;;;14.07;8.20;;;17.70;99.90;;;;;;5208612;28;20640;-50
2023/10/06 07:48:25;;;;;;;9.60;7.83;;;17.70;99.90;;;;;;5204251;28;20525;-48
2023/10/06 07:51:03;;;;;;;25.37;8.90;;;17.60;99.90;;;;;;5202603;28;20286;-49
2023/10/06 07:53:38;;;;;;;9.90;7.60;;;17.60;99.90;;;;;;5217535;28;20539;-49
2023/10/06 07:56:09;;;;;;;13.20;7.70;;;17.70;99.90;;;;;;5202197;28;20528;-49
2023/10/06 07:58:43;;;;;;;9.47;7.23;;;18.00;99.90;;;;;;5203221;28;20893;-51
2023/10/06 08:01:14;;;;;;;12.87;7.57;;;18.30;99.90;;;;;;5201234;28;20450;-50
2023/10/06 08:03:45;;;;;;;9.33;6.13;;;18.30;99.90;;;;;;5203586;28;20457;-50
2023/10/06 08:06:16;;;;;;;10.80;7.70;;;18.30;99.90;;;;;;5205431;28;20536;-51
2023/10/06 08:08:48;;;;;;;15.83;7.37;;;18.30;99.90;;;;;;5209530;28;20438;-50
2023/10/06 08:11:19;;;;;;;20.00;7.87;;;18.50;99.90;;;;;;5220377;28;20207;-50
2023/10/06 08:13:50;;;;;;;9.00;6.13;;;18.40;99.90;;;;;;5203306;28;20441;-53
2023/10/06 08:16:21;;;;;;;12.13;6.70;;;18.50;99.90;;;;;;5199171;28;20469;-52
2023/10/06 08:18:53;;;;;;;8.90;6.30;;;18.30;99.90;;;;;;5191736;28;20442;-50
2023/10/06 08:21:24;;;;;;;9.03;6.87;;;18.30;99.90;;;;;;5199863;28;20281;-52
2023/10/06 08:23:55;;;;;;;9.07;5.97;;;18.30;99.90;;;;;;5207500;28;20485;-50
2023/10/06 08:26:26;;;;;;;15.33;6.63;;;18.20;99.90;;;;;;5205220;28;20603;-50
2023/10/06 08:28:57;;;;;;;10.30;6.40;;;18.10;99.90;;;;;;5200580;28;20435;-51
2023/10/06 08:31:28;;;;;;;10.63;6.37;;;18.10;99.90;;;;;;5200109;28;20226;-50
2023/10/06 08:34:01;;;;;;;11.90;6.60;;;18.10;99.90;;;;;;5218991;28;20180;-51
2023/10/06 08:36:32;;;;;;;9.13;6.27;;;18.30;99.90;;;;;;5198997;28;20795;-49
2023/10/06 08:39:03;;;;;;;8.70;6.43;;;18.60;99.90;;;;;;5201900;28;20453;-50
2023/10/06 08:41:37;;;;;;;5.77;5.20;;;18.80;99.90;;;;;;5208484;28;20203;-51
2023/10/06 08:44:08;;;;;;;6.50;5.17;;;18.80;99.90;;;;;;5202618;28;20274;-50
2023/10/06 08:46:44;;;;;;;7.27;5.17;;;18.70;99.90;;;;;;5201712;28;20465;-51
2023/10/06 08:49:19;;;;;;;7.97;6.10;;;18.60;99.90;;;;;;5197486;28;20438;-50
2023/10/06 08:51:50;;;;;;;7.10;5.30;;;18.70;99.90;;;;;;5204794;28;20449;-50
2023/10/06 08:54:22;;;;;;;16.03;6.17;;;18.80;99.90;;;;;;5216333;28;20438;-50
2023/10/06 08:56:53;;;;;;;5.47;4.93;;;19.10;99.90;;;;;;5203397;28;20458;-52
2023/10/06 08:59:23;;;;;;;7.77;5.10;;;19.10;99.90;;;;;;5203757;28;20445;-50
2023/10/06 09:01:54;;;;;;;6.53;4.90;;;19.10;99.90;;;;;;5204381;28;20219;-50
2023/10/06 09:04:35;;;;;;;6.87;4.70;;;18.90;99.90;;;;;;5201488;28;20187;-51
2023/10/06 09:07:09;;;;;;;8.33;4.80;;;18.90;99.90;;;;;;5202161;28;20564;-51
2023/10/06 09:09:43;;;;;;;12.03;5.50;;;18.90;99.90;;;;;;5204839;28;20520;-49
2023/10/06 09:12:24;;;;;;;13.93;6.10;;;19.00;99.90;;;;;;5203201;28;20465;-49
2023/10/06 09:14:55;;;;;;;6.37;5.43;;;19.10;99.90;;;;;;5204850;28;20442;-49
2023/10/06 09:17:30;;;;;;;7.00;4.00;;;19.20;99.90;;;;;;5203056;28;20992;-50
2023/10/06 09:20:02;;;;;;;6.53;4.00;;;19.20;99.90;;;;;;5202909;28;20656;-49
2023/10/06 09:22:50;;;;;;;9.37;4.73;;;19.30;99.90;;;;;;5201765;28;20450;-49
2023/10/06 09:25:21;;;;;;;5.37;4.73;;;19.10;99.90;;;;;;5206228;28;20476;-49
2023/10/06 09:28:03;;;;;;;7.87;5.03;;;18.90;99.90;;;;;;5193451;28;20435;-51
2023/10/06 09:30:50;;;;;;;5.30;4.70;;;18.90;99.90;;;;;;5203177;28;20438;-50
2023/10/06 09:33:24;;;;;;;6.90;4.53;;;18.80;99.90;;;;;;5204450;28;20549;-50
2023/10/06 09:36:10;;;;;;;7.00;4.57;;;18.80;99.90;;;;;;5209607;28;20502;-49
2023/10/06 09:38:41;;;;;;;6.73;4.30;;;19.00;99.90;;;;;;5203905;28;20905;-50
2023/10/06 09:41:13;;;;;;;4.77;4.23;;;19.30;99.90;;;;;;5204539;28;20521;-54
2023/10/06 09:43:44;;;;;;;8.57;4.57;;;19.50;99.90;;;;;;5207023;28;20172;-49
2023/10/06 09:46:16;;;;;;;6.03;3.80;;;19.60;99.90;;;;;;5203521;28;20449;-50
2023/10/06 09:48:50;;;;;;;10.40;4.50;;;19.60;99.90;;;;;;5209047;28;20530;-51
2023/10/06 09:51:23;;;;;;;9.43;3.80;;;19.70;99.90;;;;;;5194462;28;20469;-51
2023/10/06 09:53:55;;;;;;;9.50;4.70;;;19.50;99.90;;;;;;5202630;28;20426;-50
2023/10/06 09:56:27;;;;;;;5.33;3.50;;;19.50;99.90;;;;;;5206360;28;20566;-49
2023/10/06 09:58:59;;;;;;;7.83;4.13;;;19.50;99.90;;;;;;5203422;28;20969;-50
2023/10/06 10:01:31;;;;;;;3.87;3.23;;;19.60;99.90;;;;;;5204686;28;20462;-50
2023/10/06 10:04:02;;;;;;;9.13;3.37;;;19.80;99.90;;;;;;5215705;28;20430;-51
2023/10/06 10:06:33;;;;;;;6.20;2.97;;;20.00;99.90;;;;;;5193720;28;20442;-52
2023/10/06 10:09:07;;;;;;;9.33;3.27;;;20.00;99.90;;;;;;5200624;28;20442;-51
2023/10/06 10:11:40;;;;;;;7.40;3.60;;;20.00;99.90;;;;;;5202671;28;20266;-52
2023/10/06 10:14:29;;;;;;;9.20;3.20;;;20.20;99.90;;;;;;5205288;28;20446;-50
2023/10/06 10:17:12;;;;;;;11.87;4.00;;;20.00;99.90;;;;;;5200139;28;20541;-52
2023/10/06 10:19:46;;;;;;;4.87;2.80;;;19.90;99.90;;;;;;5199778;28;20426;-51
2023/10/06 10:22:18;;;;;;;7.97;3.30;;;20.00;99.90;;;;;;5202144;28;20456;-51
2023/10/06 10:24:49;;;;;;;4.93;2.60;;;20.10;99.90;;;;;;5199390;28;20848;-50
2023/10/06 10:27:22;;;;;;;10.07;3.40;;;20.10;99.90;;;;;;5198467;28;20537;-52
2023/10/06 10:29:53;;;;;;;13.33;3.40;;;20.00;99.90;;;;;;5202362;28;20533;-51
2023/10/06 10:32:24;;;;;;;4.93;2.83;;;19.80;99.90;;;;;;5198596;28;20585;-52
2023/10/06 10:35:16;;;;;;;3.60;2.67;;;19.70;99.90;;;;;;5198457;28;20469;-50
2023/10/06 10:38:02;;;;;;;2.40;2.20;;;19.40;99.90;;;;;;5201205;28;20458;-51
2023/10/06 10:40:49;;;;;;;5.90;2.57;;;19.50;99.90;;;;;;5203466;28;20441;-52
2023/10/06 10:43:21;;;;;;;4.97;2.83;;;19.80;99.90;;;;;;5205466;28;20461;-51
2023/10/06 10:45:53;;;;;;;3.03;2.50;;;19.70;99.90;;;;;;5201237;28;20541;-51
2023/10/06 10:48:32;;;;;;;3.77;2.57;;;19.70;99.90;;;;;;5199002;28;20442;-50
2023/10/06 10:51:12;;;;;;;4.63;2.33;;;19.60;99.90;;;;;;5199867;28;20506;-51
2023/10/06 10:53:45;;;;;;;7.43;4.27;;;19.60;99.90;;;;;;5203403;28;20938;-52
2023/10/06 10:56:19;;;;;;;4.23;3.37;;;19.60;99.90;;;;;;5215565;28;20549;-52
2023/10/06 10:58:49;;;;;;;4.23;3.20;;;19.50;99.90;;;;;;5201331;28;20433;-53
2023/10/06 11:01:38;;;;;;;6.60;2.60;;;19.40;99.90;;;;;;5222088;23;20508;-52
2023/10/06 11:07:09;;;;;;;2.90;2.60;;;19.20;99.90;;;;;;5234067;28;20449;-53
2023/10/06 11:09:41;;;;;;;7.53;3.03;;;19.40;99.90;;;;;;5233617;28;21028;-52
2023/10/06 11:12:19;;;;;;;3.67;2.60;;;19.40;99.90;;;;;;5222773;28;20487;-53
2023/10/06 11:14:51;;;;;;;3.60;2.53;;;19.40;99.90;;;;;;5203713;28;20433;-51
2023/10/06 11:17:23;;;;;;;2.80;2.67;;;19.60;99.90;;;;;;5197758;28;20558;-52
2023/10/06 11:20:08;;;;;;;3.83;3.00;;;19.80;99.90;;;;;;5213533;28;20792;-49
2023/10/06 11:22:59;;;;;;;5.30;2.50;;;19.90;99.90;;;;;;5203016;28;20449;-51
2023/10/06 11:25:36;;;;;;;4.77;3.20;;;20.10;99.90;;;;;;5202255;28;20440;-48
2023/10/06 11:28:09;;;;;;;6.57;2.90;;;20.30;99.90;;;;;;5197379;28;21001;-50
2023/10/06 11:30:42;;;;;;;6.87;2.40;;;20.30;99.90;;;;;;5215469;28;20448;-52
2023/10/06 11:33:13;;;;;;;3.30;2.60;;;20.20;99.90;;;;;;5212989;28;20483;-49
2023/10/06 11:35:45;;;;;;;6.93;2.50;;;20.10;99.90;;;;;;5208203;28;20448;-49
2023/10/06 11:38:15;;;;;;;5.60;2.90;;;20.20;99.90;;;;;;5200996;28;20973;-50
2023/10/06 11:40:47;;;;;;;2.63;1.80;;;20.20;99.90;;;;;;5206245;28;20437;-49
2023/10/06 11:43:18;;;;;;;9.83;2.10;;;20.30;99.90;;;;;;5213983;28;20544;-51
2023/10/06 11:46:09;;;;;;;4.10;2.63;;;20.30;99.90;;;;;;5195745;28;20427;-48
2023/10/06 11:48:40;;;;;;;4.90;2.80;;;20.40;99.80;;;;;;5213225;28;20975;-49
2023/10/06 11:51:12;;;;;;;4.47;2.40;;;20.30;99.70;;;;;;5213752;28;20453;-49
2023/10/06 11:53:44;;;;;;;7.00;2.60;;;20.30;99.70;;;;;;5185777;28;20210;-49
2023/10/06 11:56:15;;;;;;;5.60;2.70;;;20.20;99.70;;;;;;5210415;28;21157;-49
2023/10/06 11:58:47;;;;;;;4.23;2.90;;;20.30;99.20;;;;;;5203858;28;20784;-48
2023/10/06 12:01:45;;;;;;;2.70;2.20;;;20.30;99.30;;;;;;5214205;28;20209;-51
2023/10/06 12:04:23;;;;;;;5.47;2.27;;;20.20;99.20;;;;;;5210727;28;20438;-49
2023/10/06 12:06:55;;;;;;;7.53;3.37;;;20.10;99.10;;;;;;5214728;28;20477;-50
2023/10/06 12:09:30;;;;;;;5.63;2.47;;;20.20;99.60;;;;;;5216816;28;20441;-51
2023/10/06 12:12:01;;;;;;;2.90;2.43;;;20.30;99.90;;;;;;5202436;28;20461;-50
2023/10/06 12:14:33;;;;;;;5.63;2.27;;;20.30;99.90;;;;;;5221047;28;20438;-54
2023/10/06 12:17:04;;;;;;;3.80;2.10;;;20.30;99.20;;;;;;5211456;28;20457;-49
2023/10/06 12:19:35;;;;;;;3.53;2.70;;;20.10;98.90;;;;;;5200101;28;20429;-49
2023/10/06 12:22:07;;;;;;;3.37;2.80;;;19.90;99.50;;;;;;5210807;28;20199;-50
2023/10/06 12:24:38;;;;;;;11.17;3.00;;;20.00;99.60;;;;;;5202012;28;21287;-50
2023/10/06 12:27:09;;;;;;;5.73;2.60;;;20.10;99.50;;;;;;5216722;28;20565;-49
2023/10/06 12:29:40;;;;;;;2.83;2.10;;;20.20;99.00;;;;;;5197709;28;20187;-49
2023/10/06 12:32:13;;;;;;;3.83;2.60;;;20.10;98.90;;;;;;5222972;28;20460;-51
2023/10/06 12:34:43;;;;;;;5.13;2.47;;;20.10;98.80;;;;;;5206614;28;20187;-52
2023/10/06 12:37:15;;;;;;;3.23;2.30;;;20.00;99.00;;;;;;5210728;28;20483;-49
2023/10/06 12:39:46;;;;;;;5.77;2.60;;;19.90;99.00;;;;;;5219088;28;20175;-50
2023/10/06 12:42:17;;;;;;;3.10;2.80;;;19.80;99.30;;;;;;5219956;28;20441;-49
2023/10/06 12:44:47;;;;;;;3.90;2.60;;;19.70;99.50;;;;;;5214362;28;20182;-50
2023/10/06 12:47:18;;;;;;;4.70;2.40;;;19.60;98.80;;;;;;5198965;28;20647;-49
2023/10/06 12:49:49;;;;;;;4.77;2.17;;;19.60;98.90;;;;;;5212057;28;20187;-48
2023/10/06 12:52:19;;;;;;;3.23;2.50;;;19.60;98.50;;;;;;5204199;28;20210;-49
2023/10/06 12:54:50;;;;;;;4.17;3.00;;;19.60;98.80;;;;;;5220921;28;20179;-49
2023/10/06 12:57:21;;;;;;;5.40;2.87;;;19.60;98.90;;;;;;5204405;28;20682;-54
2023/10/06 12:59:52;;;;;;;7.47;3.10;;;19.60;98.70;;;;;;5224913;28;20424;-53
2023/10/06 13:02:24;;;;;;;3.77;2.70;;;19.60;98.90;;;;;;5216576;28;20257;-49
2023/10/06 13:04:57;;;;;;;5.80;3.20;;;19.60;98.90;;;;;;5201471;28;20197;-50
2023/10/06 13:07:31;;;;;;;10.63;3.23;;;19.70;99.10;;;;;;5199662;28;20447;-48
2023/10/06 13:10:06;;;;;;;4.30;2.40;;;19.70;99.10;;;;;;5221893;28;20425;-49
2023/10/06 13:12:41;;;;;;;2.93;2.10;;;19.60;98.80;;;;;;5204162;28;20512;-49
2023/10/06 13:15:14;;;;;;;2.83;2.07;;;19.70;98.50;;;;;;5213943;28;20524;-48
2023/10/06 13:17:49;;;;;;;11.53;3.07;;;19.60;98.40;;;;;;5207876;28;20510;-48
2023/10/06 13:20:20;;;;;;;6.47;2.50;;;19.40;98.40;;;;;;5215617;28;20524;-49